Time;durP1;ratioP1;P1;durP2;ratioP2;P2;SDS_P1;SDS_P2;PMS_P1;PMS_P2;Temp;Humidity;BMP_temperature;BMP_pressure;BME280_temperature;BME280_humidity;BME280_pressure;Samples;Min_cycle;Max_cycle;Signal;HPM_P1;HPM_P2
2022/01/13 00:01:00;;;;;;;3.83;3.25;;;;;;;;;;5034054;28;20087;-69
2022/01/13 00:03:26;;;;;;;4.43;3.38;;;;;;;;;;5033292;28;20034;-69
2022/01/13 00:05:52;;;;;;;4.38;3.67;;;;;;;;;;5044011;28;20021;-69
2022/01/13 00:08:18;;;;;;;3.97;3.47;;;;;;;;;;5053708;28;20492;-69
2022/01/13 00:10:44;;;;;;;4.40;3.58;;;;;;;;;;5053605;28;20032;-69
2022/01/13 00:13:20;;;;;;;4.63;3.65;;;;;;;;;;5053958;28;20455;-69
2022/01/13 00:15:49;;;;;;;4.15;3.47;;;;;;;;;;5052232;28;20039;-69
2022/01/13 00:18:18;;;;;;;4.07;3.35;;;;;;;;;;5034580;28;20029;-69
2022/01/13 00:21:11;;;;;;;4.78;3.97;;;;;;;;;;5033483;28;20021;-69
2022/01/13 00:26:16;;;;;;;3.88;3.45;;;;;;;;;;5032372;28;20463;-70
2022/01/13 00:28:44;;;;;;;3.65;3.25;;;;;;;;;;5033351;28;20052;-70
2022/01/13 00:31:11;;;;;;;4.65;3.72;;;;;;;;;;5033199;28;20508;-70
2022/01/13 00:33:43;;;;;;;3.83;3.42;;;;;;;;;;5032733;28;20029;-70
2022/01/13 00:36:09;;;;;;;3.65;3.30;;;;;;;;;;5033503;28;20077;-70
2022/01/13 00:38:35;;;;;;;3.58;3.25;;;;;;;;;;5033168;28;20025;-70
2022/01/13 00:41:02;;;;;;;4.32;3.50;;;;;;;;;;5037288;28;20358;-70
2022/01/13 00:43:28;;;;;;;3.92;3.53;;;;;;;;;;5052521;28;20499;-70
2022/01/13 00:45:54;;;;;;;3.70;3.25;;;;;;;;;;5052961;28;20025;-70
2022/01/13 00:48:20;;;;;;;4.30;3.40;;;;;;;;;;5053040;28;20025;-70
2022/01/13 00:50:47;;;;;;;4.30;3.60;;;;;;;;;;5053016;28;20124;-70
2022/01/13 00:53:14;;;;;;;5.28;3.30;;;;;;;;;;5052299;28;20029;-69
2022/01/13 00:55:58;;;;;;;5.60;3.92;;;;;;;;;;5052616;28;20111;-69
2022/01/13 00:58:25;;;;;;;4.70;3.97;;;;;;;;;;5052729;28;20080;-69
2022/01/13 01:00:51;;;;;;;3.60;3.25;;;;;;;;;;5052882;28;20032;-69
2022/01/13 01:03:17;;;;;;;4.03;3.28;;;;;;;;;;5053020;28;20472;-70
2022/01/13 01:05:43;;;;;;;4.22;3.50;;;;;;;;;;5043234;28;20092;-70
2022/01/13 01:08:10;;;;;;;3.60;3.22;;;;;;;;;;5032801;28;20021;-70
2022/01/13 01:10:36;;;;;;;5.47;3.38;;;;;;;;;;5032284;28;20030;-70
2022/01/13 01:13:11;;;;;;;4.35;3.88;;;;;;;;;;5032916;28;20021;-70
2022/01/13 01:15:38;;;;;;;3.80;3.25;;;;;;;;;;5032396;28;20485;-70
2022/01/13 01:18:16;;;;;;;3.65;3.22;;;;;;;;;;5048201;28;20021;-70
2022/01/13 01:20:50;;;;;;;3.88;3.47;;;;;;;;;;5052263;28;20029;-70
2022/01/13 01:23:22;;;;;;;3.90;3.50;;;;;;;;;;5052214;28;20028;-70
2022/01/13 01:26:21;;;;;;;3.80;3.38;;;;;;;;;;5052507;28;20021;-70
2022/01/13 01:28:46;;;;;;;5.20;3.47;;;;;;;;;;5051824;28;20511;-70
2022/01/13 01:31:13;;;;;;;4.43;3.67;;;;;;;;;;5050794;28;20067;-70
2022/01/13 01:33:45;;;;;;;4.13;3.67;;;;;;;;;;5051732;28;20037;-70
2022/01/13 01:36:13;;;;;;;4.57;3.72;;;;;;;;;;5052052;28;20028;-70
2022/01/13 01:38:43;;;;;;;4.60;3.70;;;;;;;;;;5051843;28;20025;-70
2022/01/13 01:41:09;;;;;;;4.13;3.50;;;;;;;;;;5047002;28;20025;-70
2022/01/13 01:43:35;;;;;;;6.75;3.88;;;;;;;;;;5031632;28;20500;-70
2022/01/13 01:46:02;;;;;;;4.65;3.55;;;;;;;;;;5032258;28;20022;-70
2022/01/13 01:48:30;;;;;;;4.60;3.97;;;;;;;;;;5032280;28;20021;-70
2022/01/13 01:50:58;;;;;;;4.88;3.55;;;;;;;;;;5032021;28;20397;-70
2022/01/13 01:53:24;;;;;;;4.47;3.85;;;;;;;;;;5031540;28;20512;-69
2022/01/13 01:55:53;;;;;;;4.03;3.50;;;;;;;;;;5032166;28;20030;-69
2022/01/13 01:58:19;;;;;;;4.45;3.35;;;;;;;;;;5032019;28;20529;-69
2022/01/13 02:00:47;;;;;;;4.20;3.50;;;;;;;;;;5031763;28;20033;-69
2022/01/13 02:03:14;;;;;;;5.93;4.65;;;;;;;;;;5032427;28;20374;-69
2022/01/13 02:05:40;;;;;;;5.63;3.78;;;;;;;;;;5040300;28;20033;-69
2022/01/13 02:08:06;;;;;;;5.30;4.25;;;;;;;;;;5052238;28;20033;-69
2022/01/13 02:10:32;;;;;;;4.15;3.70;;;;;;;;;;5051491;28;20017;-69
2022/01/13 02:13:04;;;;;;;4.72;3.88;;;;;;;;;;5051867;28;20025;-69
2022/01/13 02:15:46;;;;;;;5.25;3.75;;;;;;;;;;5051742;28;20025;-69
2022/01/13 02:18:12;;;;;;;5.03;3.88;;;;;;;;;;5033701;28;20029;-69
2022/01/13 02:20:45;;;;;;;4.45;3.92;;;;;;;;;;5031424;28;20061;-69
2022/01/13 02:23:12;;;;;;;5.22;4.05;;;;;;;;;;5032018;28;20559;-69
2022/01/13 02:25:38;;;;;;;4.70;3.33;;;;;;;;;;5035383;28;20037;-70
2022/01/13 02:28:04;;;;;;;4.82;3.90;;;;;;;;;;5048187;28;20024;-70
2022/01/13 02:30:30;;;;;;;4.57;3.75;;;;;;;;;;5032244;28;20049;-70
2022/01/13 02:32:56;;;;;;;4.50;3.65;;;;;;;;;;5035393;28;20544;-70
2022/01/13 02:35:25;;;;;;;5.53;4.13;;;;;;;;;;5051774;28;20499;-70
2022/01/13 02:37:51;;;;;;;5.50;3.60;;;;;;;;;;5051307;28;20476;-70
2022/01/13 02:40:17;;;;;;;6.30;3.58;;;;;;;;;;5051728;28;20083;-70
2022/01/13 02:42:43;;;;;;;5.20;3.70;;;;;;;;;;5047606;28;20396;-70
2022/01/13 02:45:16;;;;;;;4.53;3.85;;;;;;;;;;5051652;28;20070;-70
2022/01/13 02:50:10;;;;;;;4.38;3.58;;;;;;;;;;5053245;28;20025;-70
2022/01/13 02:52:37;;;;;;;5.10;4.10;;;;;;;;;;5055006;28;20017;-70
2022/01/13 02:55:04;;;;;;;5.78;4.13;;;;;;;;;;5055382;28;20669;-70
2022/01/13 02:57:31;;;;;;;4.25;3.78;;;;;;;;;;5054801;28;20135;-70
2022/01/13 02:59:57;;;;;;;4.68;3.83;;;;;;;;;;5039593;28;20164;-70
2022/01/13 03:02:29;;;;;;;5.60;4.20;;;;;;;;;;5034461;28;20068;-70
2022/01/13 03:04:55;;;;;;;5.75;4.22;;;;;;;;;;5037644;28;20041;-70
2022/01/13 03:07:21;;;;;;;5.82;4.57;;;;;;;;;;5054953;28;20017;-70
2022/01/13 03:09:47;;;;;;;6.35;4.20;;;;;;;;;;5055021;28;20059;-70
2022/01/13 03:12:14;;;;;;;5.45;3.90;;;;;;;;;;5054612;28;20063;-70
2022/01/13 03:14:40;;;;;;;6.53;3.83;;;;;;;;;;5055112;28;20037;-70
2022/01/13 03:17:06;;;;;;;4.38;3.90;;;;;;;;;;5054532;28;20112;-70
2022/01/13 03:19:32;;;;;;;6.65;4.60;;;;;;;;;;5053468;28;20112;-70
2022/01/13 03:21:58;;;;;;;4.70;3.90;;;;;;;;;;5054040;28;20033;-70
2022/01/13 03:24:26;;;;;;;5.13;3.95;;;;;;;;;;5054905;28;20028;-70
2022/01/13 03:26:53;;;;;;;6.20;4.70;;;;;;;;;;5054707;28;20024;-71
2022/01/13 03:29:22;;;;;;;5.90;4.57;;;;;;;;;;5054630;28;20021;-70
2022/01/13 03:31:48;;;;;;;5.97;4.65;;;;;;;;;;5053784;28;20052;-70
2022/01/13 03:34:15;;;;;;;5.47;4.25;;;;;;;;;;5037580;28;20051;-70
2022/01/13 03:36:41;;;;;;;5.55;4.30;;;;;;;;;;5034155;28;20155;-70
2022/01/13 03:39:08;;;;;;;5.63;4.60;;;;;;;;;;5034689;28;20033;-70
2022/01/13 03:41:35;;;;;;;6.90;5.05;;;;;;;;;;5041953;28;20041;-70
2022/01/13 03:44:07;;;;;;;6.40;5.20;;;;;;;;;;5053411;28;20435;-70
2022/01/13 03:46:37;;;;;;;5.93;4.38;;;;;;;;;;5053872;28;20025;-70
2022/01/13 03:49:07;;;;;;;5.88;4.78;;;;;;;;;;5052950;28;20053;-70
2022/01/13 03:52:05;;;;;;;7.35;5.10;;;;;;;;;;5053400;28;20021;-70
2022/01/13 03:54:35;;;;;;;5.47;4.47;;;;;;;;;;5052842;28;20033;-70
2022/01/13 03:57:10;;;;;;;5.85;4.60;;;;;;;;;;5053519;28;20040;-70
2022/01/13 03:59:56;;;;;;;5.82;4.43;;;;;;;;;;5053924;28;20163;-70
2022/01/13 04:02:23;;;;;;;6.20;4.78;;;;;;;;;;5052758;28;20018;-70
2022/01/13 04:04:49;;;;;;;7.25;4.95;;;;;;;;;;5052236;28;20021;-70
2022/01/13 04:07:17;;;;;;;7.38;5.00;;;;;;;;;;5032493;28;20590;-70
2022/01/13 04:09:43;;;;;;;6.57;4.97;;;;;;;;;;5034021;28;20091;-70
2022/01/13 04:12:11;;;;;;;7.90;5.28;;;;;;;;;;5033364;28;20514;-70
2022/01/13 04:14:48;;;;;;;6.70;5.43;;;;;;;;;;5033954;28;20045;-70
2022/01/13 04:17:16;;;;;;;7.72;5.57;;;;;;;;;;5033621;28;20504;-70
2022/01/13 04:19:42;;;;;;;7.05;5.35;;;;;;;;;;5033597;28;20171;-70
2022/01/13 04:22:09;;;;;;;6.13;4.60;;;;;;;;;;5033088;28;20048;-70
2022/01/13 04:24:39;;;;;;;7.40;5.50;;;;;;;;;;5033645;28;20396;-70
2022/01/13 04:27:09;;;;;;;7.70;5.53;;;;;;;;;;5033904;28;20018;-70
2022/01/13 04:29:41;;;;;;;7.70;5.60;;;;;;;;;;5033244;28;20029;-70
2022/01/13 04:32:08;;;;;;;6.80;5.07;;;;;;;;;;5033056;28;20412;-70
2022/01/13 04:34:34;;;;;;;5.82;4.55;;;;;;;;;;5052605;28;20119;-70
2022/01/13 04:37:01;;;;;;;7.60;5.38;;;;;;;;;;5053279;28;20028;-70
2022/01/13 04:39:31;;;;;;;6.78;4.78;;;;;;;;;;5051817;28;20032;-70
2022/01/13 04:41:58;;;;;;;5.35;4.38;;;;;;;;;;5040932;28;20064;-70
2022/01/13 04:44:24;;;;;;;5.47;4.40;;;;;;;;;;5033342;28;20072;-70
2022/01/13 04:46:51;;;;;;;6.43;4.22;;;;;;;;;;5033020;28;20026;-69
2022/01/13 04:49:20;;;;;;;6.25;4.93;;;;;;;;;;5033166;28;20052;-69
2022/01/13 04:51:48;;;;;;;6.88;4.88;;;;;;;;;;5032541;28;20036;-69
2022/01/13 04:54:14;;;;;;;6.13;4.55;;;;;;;;;;5033107;28;20056;-69
2022/01/13 04:56:44;;;;;;;6.13;4.93;;;;;;;;;;5032550;28;20038;-69
2022/01/13 04:59:11;;;;;;;6.93;4.57;;;;;;;;;;5033265;28;20116;-69
2022/01/13 05:01:38;;;;;;;6.57;4.82;;;;;;;;;;5032228;28;20090;-69
2022/01/13 05:04:05;;;;;;;6.60;5.03;;;;;;;;;;5032771;28;20025;-69
2022/01/13 05:06:31;;;;;;;5.50;4.40;;;;;;;;;;5048204;28;20021;-69
2022/01/13 05:08:57;;;;;;;6.45;5.03;;;;;;;;;;5052624;28;20162;-69
2022/01/13 05:11:24;;;;;;;6.07;4.88;;;;;;;;;;5052099;28;20025;-69
2022/01/13 05:13:50;;;;;;;6.78;4.90;;;;;;;;;;5052404;28;20032;-69
2022/01/13 05:16:24;;;;;;;7.07;5.20;;;;;;;;;;5052506;28;20028;-69
2022/01/13 05:19:32;;;;;;;7.32;5.40;;;;;;;;;;5052650;28;20036;-69
2022/01/13 05:22:15;;;;;;;5.72;4.85;;;;;;;;;;5052326;28;20591;-69
2022/01/13 05:24:31;;;;;;;6.43;4.95;;;;;;;;;;5052276;28;20431;-69
2022/01/13 05:26:57;;;;;;;6.18;4.80;;;;;;;;;;5052454;28;20025;-69
2022/01/13 05:29:23;;;;;;;8.48;5.47;;;;;;;;;;5052192;28;20035;-69
2022/01/13 05:31:50;;;;;;;6.57;4.90;;;;;;;;;;5052086;28;20507;-69
2022/01/13 05:34:19;;;;;;;6.50;4.63;;;;;;;;;;5034857;28;20037;-69
2022/01/13 05:36:45;;;;;;;7.32;4.90;;;;;;;;;;5032364;28;20108;-69
2022/01/13 05:39:12;;;;;;;7.25;4.60;;;;;;;;;;5032368;28;20436;-69
2022/01/13 05:41:38;;;;;;;6.55;4.75;;;;;;;;;;5040628;28;20033;-69
2022/01/13 05:44:04;;;;;;;6.53;5.03;;;;;;;;;;5052298;28;20071;-69
2022/01/13 05:46:30;;;;;;;6.40;4.68;;;;;;;;;;5051906;28;20060;-69
2022/01/13 05:48:56;;;;;;;6.53;4.95;;;;;;;;;;5051851;28;20029;-69
2022/01/13 05:51:23;;;;;;;6.18;4.78;;;;;;;;;;5051551;28;20503;-69
2022/01/13 05:53:49;;;;;;;5.50;4.60;;;;;;;;;;5051695;28;20029;-69
2022/01/13 05:56:15;;;;;;;5.63;4.70;;;;;;;;;;5051734;28;20029;-69
2022/01/13 05:58:41;;;;;;;6.05;4.80;;;;;;;;;;5051694;28;20048;-69
2022/01/13 06:01:07;;;;;;;6.05;4.50;;;;;;;;;;5051643;28;20099;-69
2022/01/13 06:03:33;;;;;;;7.47;4.90;;;;;;;;;;5051299;28;20025;-69
2022/01/13 06:05:59;;;;;;;6.05;4.70;;;;;;;;;;5040224;28;20021;-69
2022/01/13 06:08:26;;;;;;;6.32;4.70;;;;;;;;;;5031781;28;20057;-69
2022/01/13 06:10:52;;;;;;;7.25;4.57;;;;;;;;;;5031753;28;20512;-69
2022/01/13 06:13:18;;;;;;;5.57;4.40;;;;;;;;;;5031744;28;20029;-69
2022/01/13 06:15:44;;;;;;;5.40;4.32;;;;;;;;;;5032201;28;20029;-69
2022/01/13 06:18:14;;;;;;;5.50;4.20;;;;;;;;;;5031649;28;20052;-69
2022/01/13 06:20:40;;;;;;;6.32;4.03;;;;;;;;;;5034425;28;20024;-69
2022/01/13 06:23:07;;;;;;;7.00;4.32;;;;;;;;;;5051899;28;20415;-69
2022/01/13 06:25:33;;;;;;;5.90;4.53;;;;;;;;;;5054350;28;20021;-70
2022/01/13 06:27:59;;;;;;;4.90;3.97;;;;;;;;;;5055642;28;20041;-69
2022/01/13 06:30:25;;;;;;;7.13;4.50;;;;;;;;;;5054467;28;20159;-69
2022/01/13 06:32:51;;;;;;;7.20;4.85;;;;;;;;;;5050098;28;20022;-69
2022/01/13 06:35:18;;;;;;;5.80;4.22;;;;;;;;;;5035765;28;20070;-69
2022/01/13 06:37:44;;;;;;;5.10;4.22;;;;;;;;;;5034547;28;20030;-69
2022/01/13 06:40:11;;;;;;;5.20;4.07;;;;;;;;;;5035307;28;20071;-69
2022/01/13 06:42:38;;;;;;;4.30;3.85;;;;;;;;;;5052759;28;20029;-70
2022/01/13 06:45:04;;;;;;;5.50;4.13;;;;;;;;;;5053750;28;20023;-69
2022/01/13 06:47:31;;;;;;;7.57;4.47;;;;;;;;;;5055218;28;20036;-70
2022/01/13 06:49:57;;;;;;;6.18;3.80;;;;;;;;;;5055075;28;20021;-69
2022/01/13 06:52:23;;;;;;;4.93;4.20;;;;;;;;;;5054690;28;20052;-69
2022/01/13 06:54:49;;;;;;;4.88;3.65;;;;;;;;;;5055146;28;20021;-69
2022/01/13 06:57:15;;;;;;;6.65;4.13;;;;;;;;;;5054702;28;20136;-69
2022/01/13 06:59:42;;;;;;;6.32;4.80;;;;;;;;;;5053612;28;20052;-69
2022/01/13 07:02:08;;;;;;;5.20;4.43;;;;;;;;;;5053168;28;20549;-69
2022/01/13 07:04:34;;;;;;;7.97;4.32;;;;;;;;;;5054977;28;20029;-69
2022/01/13 07:07:00;;;;;;;5.22;4.07;;;;;;;;;;5035385;28;20059;-69
2022/01/13 07:09:27;;;;;;;5.65;4.25;;;;;;;;;;5034895;28;20013;-69
2022/01/13 07:11:53;;;;;;;5.40;4.30;;;;;;;;;;5034378;28;20041;-69
2022/01/13 07:14:19;;;;;;;6.47;4.63;;;;;;;;;;5034949;28;20021;-69
2022/01/13 07:16:46;;;;;;;6.95;5.03;;;;;;;;;;5034779;28;20045;-70
2022/01/13 07:19:12;;;;;;;5.75;4.53;;;;;;;;;;5034968;28;20425;-69
2022/01/13 07:21:42;;;;;;;6.30;4.85;;;;;;;;;;5032750;28;20041;-69
2022/01/13 07:24:09;;;;;;;6.85;4.63;;;;;;;;;;5034460;28;20113;-69
2022/01/13 07:26:35;;;;;;;6.15;4.22;;;;;;;;;;5033407;28;20025;-69
2022/01/13 07:29:01;;;;;;;5.05;4.43;;;;;;;;;;5034802;28;20428;-70
2022/01/13 07:31:28;;;;;;;6.25;4.68;;;;;;;;;;5034253;28;20026;-69
2022/01/13 07:33:54;;;;;;;4.50;3.97;;;;;;;;;;5048199;28;20021;-69
2022/01/13 07:36:20;;;;;;;8.35;4.70;;;;;;;;;;5054169;28;20111;-69
2022/01/13 07:38:47;;;;;;;15.18;5.40;;;;;;;;;;5051398;28;20035;-69
2022/01/13 07:41:13;;;;;;;10.90;4.93;;;;;;;;;;5050691;28;20465;-69
2022/01/13 07:43:43;;;;;;;15.52;5.70;;;;;;;;;;5050924;28;20040;-69
2022/01/13 07:46:09;;;;;;;15.00;4.88;;;;;;;;;;5052174;28;20021;-69
2022/01/13 07:48:36;;;;;;;21.25;6.32;;;;;;;;;;5052514;28;20032;-68
2022/01/13 07:51:02;;;;;;;16.77;5.72;;;;;;;;;;5051887;28;20435;-66
2022/01/13 07:53:28;;;;;;;10.45;4.03;;;;;;;;;;5051573;28;20025;-69
2022/01/13 07:55:54;;;;;;;15.18;4.55;;;;;;;;;;5050543;28;20459;-67
2022/01/13 07:58:20;;;;;;;15.88;4.90;;;;;;;;;;5050473;28;20579;-67
2022/01/13 08:00:46;;;;;;;15.15;4.90;;;;;;;;;;5052221;28;20037;-67
2022/01/13 08:03:13;;;;;;;14.02;4.65;;;;;;;;;;5050191;28;20028;-68
2022/01/13 08:05:39;;;;;;;18.38;5.03;;;;;;;;;;5046162;28;20120;-67
2022/01/13 08:08:05;;;;;;;14.30;4.75;;;;;;;;;;5048570;28;20025;-66
2022/01/13 08:10:31;;;;;;;15.43;5.15;;;;;;;;;;5044595;28;20043;-66
2022/01/13 08:12:57;;;;;;;17.02;5.68;;;;;;;;;;5051532;28;20035;-66
2022/01/13 08:15:23;;;;;;;13.45;4.88;;;;;;;;;;5050178;28;20036;-66
2022/01/13 08:20:35;;;;;;;13.68;4.70;;;;;;;;;;5034621;28;20079;-67
2022/01/13 08:23:01;;;;;;;7.65;4.50;;;;;;;;;;5050752;28;20025;-66
2022/01/13 08:25:28;;;;;;;9.35;4.03;;;;;;;;;;5042801;28;20056;-67
2022/01/13 08:27:55;;;;;;;10.57;4.20;;;;;;;;;;5048204;28;20026;-67
2022/01/13 08:30:21;;;;;;;10.85;4.43;;;;;;;;;;5044591;28;20062;-67
2022/01/13 08:32:47;;;;;;;12.57;4.15;;;;;;;;;;5049964;28;20031;-68
2022/01/13 08:35:14;;;;;;;5.70;3.72;;;;;;;;;;5043803;28;20078;-69
2022/01/13 08:37:40;;;;;;;15.93;4.00;;;;;;;;;;5044707;28;20032;-66
2022/01/13 08:40:07;;;;;;;12.55;4.15;;;;;;;;;;5048406;28;20028;-71
2022/01/13 08:42:34;;;;;;;10.60;4.18;;;;;;;;;;5044973;28;20069;-67
2022/01/13 08:45:00;;;;;;;11.55;4.55;;;;;;;;;;5051112;28;20017;-67
2022/01/13 08:47:26;;;;;;;10.90;5.53;;;;;;;;;;5046081;28;20032;-68
2022/01/13 08:49:52;;;;;;;12.82;5.65;;;;;;;;;;5045190;28;20024;-68
2022/01/13 08:52:18;;;;;;;11.43;4.68;;;;;;;;;;5049369;28;20017;-67
2022/01/13 08:54:46;;;;;;;11.98;4.80;;;;;;;;;;5050957;28;20040;-68
2022/01/13 08:57:13;;;;;;;10.45;4.20;;;;;;;;;;5050774;28;20049;-66
2022/01/13 08:59:39;;;;;;;10.73;4.60;;;;;;;;;;5050856;28;20043;-67
2022/01/13 09:02:05;;;;;;;15.10;5.63;;;;;;;;;;5049509;28;20025;-67
2022/01/13 09:04:31;;;;;;;10.40;4.85;;;;;;;;;;5049752;28;20377;-68
2022/01/13 09:06:57;;;;;;;10.30;5.45;;;;;;;;;;5040937;28;20439;-67
2022/01/13 09:09:23;;;;;;;8.48;5.22;;;;;;;;;;5042604;28;20033;-66
2022/01/13 09:11:50;;;;;;;13.95;6.30;;;;;;;;;;5050001;28;20021;-66
2022/01/13 09:14:17;;;;;;;11.05;5.47;;;;;;;;;;5049806;28;20558;-66
2022/01/13 09:16:46;;;;;;;15.32;6.43;;;;;;;;;;5049456;28;20461;-66
2022/01/13 09:19:13;;;;;;;10.07;4.55;;;;;;;;;;5041719;28;20025;-67
2022/01/13 09:21:41;;;;;;;12.60;6.07;;;;;;;;;;5049767;28;20059;-67
2022/01/13 09:24:11;;;;;;;13.07;5.50;;;;;;;;;;5050285;28;20033;-68
2022/01/13 09:26:38;;;;;;;12.48;5.45;;;;;;;;;;5042177;28;20028;-67
2022/01/13 09:29:05;;;;;;;19.77;8.05;;;;;;;;;;5036856;28;20033;-68
2022/01/13 09:31:32;;;;;;;15.05;6.75;;;;;;;;;;5041428;28;20047;-68
2022/01/13 09:33:58;;;;;;;17.40;7.85;;;;;;;;;;5036463;28;20033;-68
2022/01/13 09:36:24;;;;;;;14.82;6.90;;;;;;;;;;5044640;28;20120;-68
2022/01/13 09:38:50;;;;;;;14.70;7.47;;;;;;;;;;5049252;28;20040;-67
2022/01/13 09:41:17;;;;;;;9.48;5.75;;;;;;;;;;5043549;28;20108;-67
2022/01/13 09:43:45;;;;;;;11.88;6.05;;;;;;;;;;5049145;28;20076;-67
2022/01/13 09:46:11;;;;;;;9.82;5.22;;;;;;;;;;5045357;28;20041;-67
2022/01/13 09:48:41;;;;;;;13.52;5.40;;;;;;;;;;5044998;28;20033;-67
2022/01/13 09:51:07;;;;;;;14.77;5.60;;;;;;;;;;5045989;28;20056;-69
2022/01/13 09:53:34;;;;;;;13.82;6.03;;;;;;;;;;5048728;28;20081;-67
2022/01/13 09:56:00;;;;;;;11.80;6.55;;;;;;;;;;5049170;28;20506;-68
2022/01/13 09:58:26;;;;;;;14.32;5.72;;;;;;;;;;5047991;28;20057;-68
2022/01/13 10:00:52;;;;;;;14.38;6.13;;;;;;;;;;5049549;28;20029;-68
2022/01/13 10:03:23;;;;;;;14.02;5.90;;;;;;;;;;5048397;28;20022;-68
2022/01/13 10:05:50;;;;;;;13.25;6.30;;;;;;;;;;5045243;28;20028;-68
2022/01/13 10:08:16;;;;;;;7.22;4.72;;;;;;;;;;5048700;28;20040;-67
2022/01/13 10:10:44;;;;;;;9.38;4.25;;;;;;;;;;5048411;28;20021;-68
2022/01/13 10:13:13;;;;;;;15.45;5.13;;;;;;;;;;5048172;28;20053;-67
2022/01/13 10:18:37;;;;;;;12.27;5.63;;;;;;;;;;5038774;28;20118;-68
2022/01/13 10:21:08;;;;;;;10.90;7.15;;;;;;;;;;5048762;28;20114;-68
2022/01/13 10:23:34;;;;;;;15.90;7.10;;;;;;;;;;5045583;28;20052;-68
2022/01/13 10:26:14;;;;;;;12.23;7.13;;;;;;;;;;5048508;28;20017;-68
2022/01/13 10:28:40;;;;;;;8.68;6.63;;;;;;;;;;5042610;28;20029;-69
2022/01/13 10:31:07;;;;;;;10.88;7.47;;;;;;;;;;5045023;28;20112;-68
2022/01/13 10:33:36;;;;;;;12.35;8.07;;;;;;;;;;5040102;28;20033;-68
2022/01/13 10:36:12;;;;;;;12.73;8.40;;;;;;;;;;5040469;28;20714;-68
2022/01/13 10:38:52;;;;;;;15.10;6.88;;;;;;;;;;5041482;28;20384;-69
2022/01/13 10:41:49;;;;;;;7.90;5.80;;;;;;;;;;5043276;28;20400;-67
2022/01/13 10:44:23;;;;;;;7.35;4.65;;;;;;;;;;5047891;28;20017;-67
2022/01/13 10:46:59;;;;;;;11.52;5.20;;;;;;;;;;5049122;28;20480;-67
2022/01/13 10:49:32;;;;;;;9.13;4.65;;;;;;;;;;5048639;28;20021;-67
2022/01/13 10:52:31;;;;;;;10.13;4.80;;;;;;;;;;5048642;28;20021;-68
2022/01/13 10:55:00;;;;;;;7.25;4.15;;;;;;;;;;5045419;28;20037;-67
2022/01/13 10:57:26;;;;;;;8.93;4.75;;;;;;;;;;5047939;28;20067;-67
2022/01/13 10:59:53;;;;;;;9.80;4.95;;;;;;;;;;5048305;28;20029;-68
2022/01/13 11:02:20;;;;;;;8.60;4.63;;;;;;;;;;5047878;28;20087;-67
2022/01/13 11:04:46;;;;;;;8.18;3.88;;;;;;;;;;5049184;28;20091;-67
2022/01/13 11:07:18;;;;;;;5.07;3.95;;;;;;;;;;5048453;28;20044;-67
2022/01/13 11:09:54;;;;;;;6.18;4.38;;;;;;;;;;5049345;28;20083;-67
2022/01/13 11:12:56;;;;;;;7.55;4.07;;;;;;;;;;5051263;28;20033;-68
2022/01/13 11:15:24;;;;;;;10.13;3.90;;;;;;;;;;5045151;28;20037;-67
2022/01/13 11:17:50;;;;;;;7.88;4.10;;;;;;;;;;5053208;28;20037;-67
2022/01/13 11:20:18;;;;;;;5.07;3.50;;;;;;;;;;5052190;28;20059;-67
2022/01/13 11:22:45;;;;;;;7.68;4.15;;;;;;;;;;5052545;28;20036;-67
2022/01/13 11:25:12;;;;;;;8.45;4.13;;;;;;;;;;5052312;28;20391;-67
2022/01/13 11:27:38;;;;;;;7.95;3.30;;;;;;;;;;5052796;28;20032;-67
2022/01/13 11:30:06;;;;;;;7.50;3.92;;;;;;;;;;5052490;28;20107;-66
2022/01/13 11:32:33;;;;;;;10.05;3.70;;;;;;;;;;5048852;28;20032;-66
2022/01/13 11:34:59;;;;;;;9.73;3.45;;;;;;;;;;5047861;28;20075;-67
2022/01/13 11:37:29;;;;;;;8.20;3.70;;;;;;;;;;5051612;28;20033;-67
2022/01/13 11:39:56;;;;;;;5.97;3.10;;;;;;;;;;5052255;28;20059;-68
2022/01/13 11:42:23;;;;;;;10.75;3.70;;;;;;;;;;5051038;28;20496;-67
2022/01/13 11:45:08;;;;;;;4.90;4.22;;;;;;;;;;5049049;28;20127;-67
2022/01/13 11:47:34;;;;;;;7.03;4.80;;;;;;;;;;5048897;28;20032;-67
2022/01/13 11:50:17;;;;;;;7.13;4.10;;;;;;;;;;5051613;28;20099;-67
2022/01/13 11:52:48;;;;;;;;;;;;;;;;;;5050779;28;20071;-66
2022/01/13 11:55:26;;;;;;;8.77;5.63;;;;;;;;;;5051106;28;19905;-67
2022/01/13 11:57:53;;;;;;;6.75;5.30;;;;;;;;;;5047276;28;20555;-67
2022/01/13 12:00:22;;;;;;;6.72;5.15;;;;;;;;;;5051668;28;20025;-69
2022/01/13 12:02:48;;;;;;;8.50;5.50;;;;;;;;;;5050514;28;20115;-67
2022/01/13 12:05:21;;;;;;;10.70;6.65;;;;;;;;;;5048839;28;20490;-68
2022/01/13 12:07:47;;;;;;;9.85;5.65;;;;;;;;;;5050338;28;20127;-67
2022/01/13 12:10:29;;;;;;;7.95;5.63;;;;;;;;;;5049941;28;20035;-68
2022/01/13 12:12:55;;;;;;;5.30;4.25;;;;;;;;;;5051086;28;20483;-66
2022/01/13 12:15:22;;;;;;;6.47;4.88;;;;;;;;;;5051114;28;20060;-67
2022/01/13 12:18:04;;;;;;;8.60;4.68;;;;;;;;;;5047173;28;20026;-66
2022/01/13 12:20:39;;;;;;;7.93;4.10;;;;;;;;;;5048088;28;20039;-67
2022/01/13 12:23:16;;;;;;;8.48;4.60;;;;;;;;;;5044337;28;20056;-67
2022/01/13 12:25:43;;;;;;;9.40;4.95;;;;;;;;;;5043288;28;20024;-67
2022/01/13 12:28:18;;;;;;;8.05;4.55;;;;;;;;;;5037471;28;20032;-66
2022/01/13 12:30:44;;;;;;;6.10;4.05;;;;;;;;;;5040219;28;20051;-67
2022/01/13 12:33:10;;;;;;;8.15;4.55;;;;;;;;;;5038740;28;20029;-67
2022/01/13 12:35:41;;;;;;;6.88;4.70;;;;;;;;;;5049652;28;20067;-67
2022/01/13 12:38:16;;;;;;;7.63;4.40;;;;;;;;;;5042617;28;20025;-67
2022/01/13 12:40:49;;;;;;;9.20;4.47;;;;;;;;;;5041670;28;20408;-67
2022/01/13 12:43:22;;;;;;;;;;;;;;;;;;5043344;28;20083;-66
2022/01/13 12:45:48;;;;;;;6.95;4.70;;;;;;;;;;5049621;28;19962;-68
2022/01/13 12:48:14;;;;;;;7.15;4.15;;;;;;;;;;5039439;28;20020;-67
2022/01/13 12:50:44;;;;;;;7.30;4.32;;;;;;;;;;5040893;28;20025;-67
2022/01/13 12:53:19;;;;;;;8.48;4.60;;;;;;;;;;5035901;28;20033;-66
2022/01/13 12:55:52;;;;;;;7.18;4.10;;;;;;;;;;5047826;28;20511;-66
2022/01/13 12:58:20;;;;;;;5.32;4.25;;;;;;;;;;5045768;28;20421;-68
2022/01/13 13:00:46;;;;;;;5.22;3.97;;;;;;;;;;5044253;28;20090;-67
2022/01/13 13:03:12;;;;;;;5.75;4.13;;;;;;;;;;5048578;28;20021;-67
2022/01/13 13:05:44;;;;;;;5.97;4.38;;;;;;;;;;5045921;28;20412;-67
2022/01/13 13:08:20;;;;;;;6.65;4.03;;;;;;;;;;5044561;28;20044;-68
2022/01/13 13:10:49;;;;;;;6.03;4.30;;;;;;;;;;5044661;28;20029;-66
2022/01/13 13:13:17;;;;;;;6.40;4.10;;;;;;;;;;5047972;28;20549;-66
2022/01/13 13:15:50;;;;;;;5.10;3.80;;;;;;;;;;5041318;28;20124;-66
2022/01/13 13:18:16;;;;;;;;;;;;;;;;;;5033837;28;20037;-67
2022/01/13 13:20:42;;;;;;;7.95;5.18;;;;;;;;;;5046709;28;20300;-68
2022/01/13 13:23:10;;;;;;;7.55;4.60;;;;;;;;;;5044451;28;20060;-67
2022/01/13 13:25:47;;;;;;;9.57;4.50;;;;;;;;;;5045755;28;20037;-67
2022/01/13 13:28:31;;;;;;;7.45;5.13;;;;;;;;;;5045350;28;20380;-67
2022/01/13 13:30:58;;;;;;;7.78;5.57;;;;;;;;;;5043572;28;20048;-67
2022/01/13 13:33:50;;;;;;;7.20;5.10;;;;;;;;;;5037980;28;20512;-67
2022/01/13 13:36:18;;;;;;;8.93;5.80;;;;;;;;;;5041243;28;20117;-67
2022/01/13 13:38:52;;;;;;;7.50;5.60;;;;;;;;;;5035082;28;20039;-67
2022/01/13 13:41:19;;;;;;;22.92;8.20;;;;;;;;;;5043706;28;20017;-67
2022/01/13 13:43:46;;;;;;;11.55;8.20;;;;;;;;;;5038212;28;20512;-66
2022/01/13 13:46:13;;;;;;;11.32;8.40;;;;;;;;;;5040895;28;20021;-66
2022/01/13 13:48:41;;;;;;;12.57;9.05;;;;;;;;;;5045360;28;20060;-66
2022/01/13 13:51:07;;;;;;;13.02;9.00;;;;;;;;;;5036875;28;20415;-67
2022/01/13 13:53:33;;;;;;;14.02;10.05;;;;;;;;;;5047004;28;20036;-66
2022/01/13 13:56:03;;;;;;;22.65;9.63;;;;;;;;;;5045150;28;20082;-66
2022/01/13 13:58:29;;;;;;;14.25;9.57;;;;;;;;;;5045092;28;20246;-66
2022/01/13 14:01:03;;;;;;;16.52;10.35;;;;;;;;;;5039045;28;20025;-66
2022/01/13 14:03:39;;;;;;;13.57;8.80;;;;;;;;;;5039166;28;20187;-66
2022/01/13 14:06:07;;;;;;;14.25;9.02;;;;;;;;;;5046628;28;20053;-68
2022/01/13 14:08:34;;;;;;;16.90;8.82;;;;;;;;;;5046014;28;20032;-66
2022/01/13 14:11:07;;;;;;;15.18;9.82;;;;;;;;;;5048916;28;20112;-66
2022/01/13 14:13:33;;;;;;;9.95;8.80;;;;;;;;;;5041243;28;20983;-66
2022/01/13 14:15:59;;;;;;;12.45;8.75;;;;;;;;;;5043124;28;20017;-66
2022/01/13 14:18:25;;;;;;;10.70;6.95;;;;;;;;;;5040433;28;20116;-66
2022/01/13 14:20:55;;;;;;;10.73;7.78;;;;;;;;;;5038603;28;20484;-67
2022/01/13 14:23:25;;;;;;;10.75;7.78;;;;;;;;;;5036951;28;20388;-66
2022/01/13 14:25:53;;;;;;;12.00;7.53;;;;;;;;;;5045171;28;20120;-67
2022/01/13 14:28:27;;;;;;;8.90;7.20;;;;;;;;;;5045373;28;20021;-67
2022/01/13 14:31:08;;;;;;;10.63;7.43;;;;;;;;;;5048288;28;20024;-67
2022/01/13 14:33:34;;;;;;;16.38;10.32;;;;;;;;;;5040672;28;20447;-67
2022/01/13 14:36:02;;;;;;;17.52;13.10;;;;;;;;;;5044305;28;20476;-66
2022/01/13 14:38:39;;;;;;;18.58;13.07;;;;;;;;;;5043921;28;20029;-66
2022/01/13 14:41:05;;;;;;;18.55;13.13;;;;;;;;;;5046393;28;20040;-66
2022/01/13 14:43:32;;;;;;;23.65;15.90;;;;;;;;;;5044967;28;20025;-67
2022/01/13 14:46:14;;;;;;;26.20;15.63;;;;;;;;;;5042157;28;20013;-67
2022/01/13 14:48:41;;;;;;;38.38;21.58;;;;;;;;;;5038582;28;20103;-67
2022/01/13 14:51:12;;;;;;;32.50;21.50;;;;;;;;;;5049793;28;20024;-66
2022/01/13 14:53:40;;;;;;;21.45;16.13;;;;;;;;;;5044154;28;20119;-66
2022/01/13 14:56:07;;;;;;;30.83;16.80;;;;;;;;;;5043518;28;20024;-67
2022/01/13 14:58:33;;;;;;;41.08;15.10;;;;;;;;;;5046556;28;20056;-67
2022/01/13 15:01:03;;;;;;;28.83;10.00;;;;;;;;;;5046770;28;20029;-66